MZBZ/BZE METAR and TAF weather

Enter ICAO airport designator
Station Type Date Time Source
MZBZ METAR 2019/12/14 17:00 UTC NOAA

MZBZ 141700Z 30003KT 9999 FEW023 29/24 A2995 Q1014 NOSIG


Station Type Date Time Source
MZBZ Decoded METAR 2019/12/14 17:00 UTC NOAA

Belize / Phillip Goldston Intl. Airport, Belize (MZBZ) 17-32N 088-18W 5M
Dec 14, 2019 - 12:00 PM EST / 2019.12.14 1700 UTC
Wind: from the WNW (300 degrees) at 3 MPH (3 KT):0
Visibility: greater than 7 mile(s):0
Sky conditions: mostly clear
Temperature: 84 F (29 C)
Dew Point: 75 F (24 C)
Relative Humidity: 74%
Pressure (altimeter): 29.95 in. Hg (1014 hPa)
ob: MZBZ 141700Z 30003KT 9999 FEW023 29/24 A2995 Q1014 NOSIG
cycle: 17

Station Type Date Time Source
MZBZ TAF 2019/12/14 18:06 UTC NOAA

TAF TAF MZBZ 141500Z 1418/1518 04007KT SCT023
BECMG 1504/1506 VRB03KT
BECMG 1513/1515 07005KT

Example: see airport list